• Join FlightAware (Why Join?)
  • Login
  • US Flag 
12:58PM EDT


 

Airport Tracker/Info


-or-


 

Live Flight TrackerFlight Track Log ✈ VNR197 ✈ 20-Apr-2013 ✈ KHDC - KPIE

Flight Track Log - Related Links

Times and Time Zones

All times are in EDT time to prevent confusion due to time zone crossing. See the VNR197 flight status page for this flight to view local times or setup timezone preferences in your user account.

Time Position Orientation Groundspeed Altitude Reporting Facility
EDT Latitude Longitude Course Direction KTS MPH feet Rate Location/Type
01:47PM 30.4339 -90.4158 148° Southeast 194 223 6,800  Level Houston Center
01:48PM 30.3867 -90.3822 148° Southeast 195 224 8,700 1,920 Climbing Houston Center
01:49PM 30.3347 -90.3442 148° Southeast 212 244 10,800 1,980 Climbing Houston Center
01:50PM 30.2797 -90.3050 148° Southeast 225 259 12,900 1,920 Climbing Houston Center
01:51PM 30.2214 -90.2639 149° Southeast 241 277 14,800 960 Climbing Houston Center
01:52PM 30.1556 -90.2175 149° Southeast 273 314 15,000 180 Climbing Houston Center
01:53PM 30.0622 -90.1533 149° Southeast 322 371 15,200 1,080 Climbing Houston Center
01:54PM 30.0156 -90.0728 124° Southeast 308 354 17,300 1,800 Climbing Houston Center
01:55PM 29.9811 -89.9908 116° Southeast 289 333 19,000 1,560 Climbing Houston Center
01:56PM 29.9475 -89.9086 115° Southeast 285 328 20,600 1,500 Climbing Houston Center
01:57PM 29.9117 -89.8219 115° Southeast 298 343 22,100 1,680 Climbing Houston Center
01:58PM 29.8658 -89.7142 116° Southeast 312 359 24,100 1,740 Climbing Houston Center
02:00PM 29.8275 -89.6222 116° Southeast 319 367 25,700 1,440 Climbing Houston Center
02:01PM 29.7883 -89.5264 115° Southeast 331 381 27,100 1,380 Climbing Houston Center
02:02PM 29.7467 -89.4294 116° Southeast 337 388 28,600 1,260 Climbing Houston Center
02:03PM 29.7061 -89.3319 116° Southeast 338 389 29,800 1,020 Climbing Houston Center
02:04PM 29.6539 -89.2094 116° Southeast 355 409 30,800 540 Climbing Houston Center
02:05PM 29.6072 -89.1006 116° Southeast 376 433 31,000 60 Climbing Houston Center
02:06PM 29.5572 -88.9833 116° Southeast 401 461 31,000  Level Houston Center
02:07PM 29.5044 -88.8625 117° Southeast 421 484 31,000  Level Houston Center
02:08PM 29.4528 -88.7389 116° Southeast 428 493 31,000  Level Houston Center
02:09PM 29.3986 -88.6147 117° Southeast 435 501 31,000  Level Houston Center
02:10PM 29.3350 -88.4675 116° Southeast 430 495 31,000  Level Houston Center
02:11PM 29.2817 -88.3458 117° Southeast 427 491 31,000  Level Houston Center
02:12PM 29.2347 -88.2206 113° Southeast 430 495 31,000  Level Houston Center
02:13PM 29.2031 -88.0839 105° East 441 507 31,000  Level Houston Center
02:14PM 29.1700 -87.9456 105° East 438 504 31,000  Level Houston Center
02:15PM 29.1381 -87.8100 105° East 442 509 31,000  Level Houston Center
02:16PM 29.1047 -87.6742 106° East 444 511 31,000  Level Houston Center
02:17PM 29.0644 -87.5122 106° East 442 509 31,000  Level Houston Center
02:18PM 29.0314 -87.3758 105° East 446 513 31,000  Level Houston Center
02:19PM 28.9931 -87.2175 105° East 462 532 31,000  Level Jacksonville Center
02:20PM 28.9581 -87.0831 107° East 469 540 31,000  Level Jacksonville Center
02:21PM 28.9289 -86.9514 104° East 451 519 31,000  Level Jacksonville Center
02:22PM 28.8933 -86.8169 107° East 459 528 31,000  Level Jacksonville Center
02:23PM 28.8617 -86.6878 106° East 468 539 31,000  Level Jacksonville Center
02:24PM 28.8242 -86.5489 107° East 438 504 31,000  Level Jacksonville Center
02:25PM 28.7903 -86.4150 106° East 452 520 31,000  Level Jacksonville Center
02:26PM 28.7561 -86.2836 106° East 440 506 31,000  Level Jacksonville Center
02:27PM 28.7219 -86.1522 106° East 429 494 31,000  Level Jacksonville Center
02:28PM 28.6878 -86.0211 107° East 435 501 31,000  Level Jacksonville Center
02:29PM 28.6514 -85.8828 107° East 435 501 31,000  Level Jacksonville Center
02:30PM 28.6189 -85.7517 106° East 435 501 31,000  Level Jacksonville Center
02:31PM 28.5842 -85.6256 107° East 435 501 31,000  Level Jacksonville Center
02:32PM 28.5472 -85.4897 107° East 429 494 31,000  Level Jacksonville Center
02:33PM 28.5122 -85.3567 107° East 429 494 31,000  Level Jacksonville Center
02:34PM 28.4794 -85.2258 106° East 429 494 31,000 -60 Level Jacksonville Center
02:35PM 28.4419 -85.1000 109° East 429 494 30,900  Descending Jacksonville Center
02:37PM 28.3906 -84.8883 105° East 445 512 31,000  Climbing Miami Center
02:38PM 28.3597 -84.7708 107° East 429 494 31,000  Level Miami Center
02:39PM 28.3247 -84.6458 108° East 411 473 31,000  Level Miami Center
02:40PM 28.2958 -84.5261 105° East 411 473 31,000  Level Miami Center
02:41PM 28.2589 -84.3964 108° East 417 480 31,000 -600 Level Miami Center
02:42PM 28.2222 -84.2647 108° East 422 486 29,800 -1,980 Descending Miami Center
02:43PM 28.1847 -84.1397 109° East 422 486 27,100 -2,640 Descending Miami Center
02:44PM 28.1472 -84.0150 109° East 422 486 24,600 -2,520 Descending Miami Center
02:45PM 28.1153 -83.9025 108° East 405 466 22,100 -2,400 Descending Miami Center
02:46PM 28.0872 -83.7950 106° East 379 436 19,900 -2,160 Descending Miami Center
02:47PM 28.0589 -83.6900 107° East 356 410 17,800 -2,160 Descending Miami Center
02:48PM 28.0283 -83.5822 108° East 356 410 15,600 -2,220 Descending Miami Center
02:49PM 28.0000 -83.4772 107° East 350 403 13,400 -2,100 Descending Miami Center
02:50PM 27.9714 -83.3747 108° East 350 403 11,400 -2,040 Descending Miami Center
02:51PM 27.9444 -83.2792 108° East 339 390 9,400 -1,980 Descending Miami Center
02:52PM 27.9172 -83.1861 108° East 326 375 7,500 -1,800 Descending Miami Center
02:53PM 27.9378 -83.0981 75° East 292 336 5,800 -1,380 Descending Miami Center
02:54PM 27.9250 -83.0081 99° East 292 336 4,800 -1,020 Descending Miami Center
02:55PM 27.9056 -82.9225 104° East 292 336 3,800 -1,140 Descending Miami Center
02:56PM 27.8881 -82.8417 104° East 278 320 2,600 -960 Descending Miami Center
02:56PM 27.8833 -82.8333 123° Southeast 245 282 2,600 -480 Level Tampa TRACON
02:57PM 27.8667 -82.7667 106° East 199 229 2,000 -600 Descending Tampa TRACON
02:58PM 27.8500 -82.7167 111° Southeast 175 201 1,400 -840 Descending Tampa TRACON
02:59PM 27.8833 -82.6833 41° Northeast 140 161 500 -1,020 Descending Tampa TRACON
03:01PM 27.9000 -82.6833 341° North  Level FlightAware Approximate
03:08PM 27.9100 -82.6874 341° North  Level Estimated
03:09PM 27.9100 -82.6874 341° North  Level Estimated